sensor_id;sensor_type;location;lat;lon;timestamp;temperature;humidity
16929;DHT22;8581;47.334;11.190;2024-03-23T00:56:20;2.70;99.90
16929;DHT22;8581;47.334;11.190;2024-03-23T00:58:52;2.70;99.90
16929;DHT22;8581;47.334;11.190;2024-03-23T01:01:24;2.60;99.90
16929;DHT22;8581;47.334;11.190;2024-03-23T01:03:56;2.50;99.90
16929;DHT22;8581;47.334;11.190;2024-03-23T01:06:28;2.40;99.90
16929;DHT22;8581;47.334;11.190;2024-03-23T01:09:00;2.30;99.90
16929;DHT22;8581;47.334;11.190;2024-03-23T01:11:33;2.30;99.90
16929;DHT22;8581;47.334;11.190;2024-03-23T01:14:05;2.20;99.90
16929;DHT22;8581;47.334;11.190;2024-03-23T01:16:37;2.30;99.90
16929;DHT22;8581;47.334;11.190;2024-03-23T01:19:09;2.20;99.90
16929;DHT22;8581;47.334;11.190;2024-03-23T01:21:41;2.00;99.90
16929;DHT22;8581;47.334;11.190;2024-03-23T01:24:14;2.00;99.90
16929;DHT22;8581;47.334;11.190;2024-03-23T01:26:46;2.10;99.90
16929;DHT22;8581;47.334;11.190;2024-03-23T01:29:18;2.10;99.90
16929;DHT22;8581;47.334;11.190;2024-03-23T01:31:50;2.00;99.90
16929;DHT22;8581;47.334;11.190;2024-03-23T01:34:22;1.90;99.90
16929;DHT22;8581;47.334;11.190;2024-03-23T01:36:54;1.90;99.90
16929;DHT22;8581;47.334;11.190;2024-03-23T01:39:27;1.90;99.90
16929;DHT22;8581;47.334;11.190;2024-03-23T01:41:59;1.80;99.90
16929;DHT22;8581;47.334;11.190;2024-03-23T01:44:31;1.70;99.90
16929;DHT22;8581;47.334;11.190;2024-03-23T01:47:03;1.60;99.90
16929;DHT22;8581;47.334;11.190;2024-03-23T01:49:35;1.60;99.90
16929;DHT22;8581;47.334;11.190;2024-03-23T01:52:07;1.70;99.90
16929;DHT22;8581;47.334;11.190;2024-03-23T01:54:39;1.60;99.90
16929;DHT22;8581;47.334;11.190;2024-03-23T01:57:11;1.50;99.90
16929;DHT22;8581;47.334;11.190;2024-03-23T01:59:43;1.50;99.90
16929;DHT22;8581;47.334;11.190;2024-03-23T02:02:15;1.50;99.90
16929;DHT22;8581;47.334;11.190;2024-03-23T02:04:48;1.60;99.90
16929;DHT22;8581;47.334;11.190;2024-03-23T02:07:19;1.60;99.90
16929;DHT22;8581;47.334;11.190;2024-03-23T02:09:52;1.50;99.90
16929;DHT22;8581;47.334;11.190;2024-03-23T02:12:24;1.50;99.90
16929;DHT22;8581;47.334;11.190;2024-03-23T02:14:56;1.60;99.90
16929;DHT22;8581;47.334;11.190;2024-03-23T02:17:29;1.50;99.90
16929;DHT22;8581;47.334;11.190;2024-03-23T02:20:01;1.50;99.90
16929;DHT22;8581;47.334;11.190;2024-03-23T02:22:36;1.40;99.90
16929;DHT22;8581;47.334;11.190;2024-03-23T02:25:08;1.30;99.90
16929;DHT22;8581;47.334;11.190;2024-03-23T02:27:40;1.40;99.90
16929;DHT22;8581;47.334;11.190;2024-03-23T02:30:12;1.40;99.90
16929;DHT22;8581;47.334;11.190;2024-03-23T02:32:44;1.40;99.90
16929;DHT22;8581;47.334;11.190;2024-03-23T02:35:17;1.50;99.90
16929;DHT22;8581;47.334;11.190;2024-03-23T02:37:49;1.60;99.90
16929;DHT22;8581;47.334;11.190;2024-03-23T02:40:20;1.60;99.90
16929;DHT22;8581;47.334;11.190;2024-03-23T02:42:53;1.60;99.90
16929;DHT22;8581;47.334;11.190;2024-03-23T02:45:25;1.50;99.90
16929;DHT22;8581;47.334;11.190;2024-03-23T02:47:57;1.50;99.90
16929;DHT22;8581;47.334;11.190;2024-03-23T02:50:29;1.40;99.90
16929;DHT22;8581;47.334;11.190;2024-03-23T02:53:01;1.50;99.90
16929;DHT22;8581;47.334;11.190;2024-03-23T02:55:33;1.40;99.90
16929;DHT22;8581;47.334;11.190;2024-03-23T02:58:05;1.30;99.90
16929;DHT22;8581;47.334;11.190;2024-03-23T03:00:37;1.30;99.90
16929;DHT22;8581;47.334;11.190;2024-03-23T03:03:10;1.20;99.90
16929;DHT22;8581;47.334;11.190;2024-03-23T03:05:42;1.20;99.90
16929;DHT22;8581;47.334;11.190;2024-03-23T03:08:14;1.20;99.90
16929;DHT22;8581;47.334;11.190;2024-03-23T03:10:46;1.20;99.90
16929;DHT22;8581;47.334;11.190;2024-03-23T03:13:18;1.10;99.90
16929;DHT22;8581;47.334;11.190;2024-03-23T03:15:50;1.10;99.90
16929;DHT22;8581;47.334;11.190;2024-03-23T03:18:22;1.10;99.90
16929;DHT22;8581;47.334;11.190;2024-03-23T03:20:54;1.20;99.90
16929;DHT22;8581;47.334;11.190;2024-03-23T03:23:27;1.20;99.90
16929;DHT22;8581;47.334;11.190;2024-03-23T03:25:58;1.30;99.90
16929;DHT22;8581;47.334;11.190;2024-03-23T03:28:31;1.30;99.90
16929;DHT22;8581;47.334;11.190;2024-03-23T03:31:03;1.20;99.90
16929;DHT22;8581;47.334;11.190;2024-03-23T03:33:35;1.00;99.90
16929;DHT22;8581;47.334;11.190;2024-03-23T03:36:08;0.90;99.90
16929;DHT22;8581;47.334;11.190;2024-03-23T03:38:40;0.90;99.90
16929;DHT22;8581;47.334;11.190;2024-03-23T03:41:12;0.90;99.90
16929;DHT22;8581;47.334;11.190;2024-03-23T03:43:44;0.60;99.90
16929;DHT22;8581;47.334;11.190;2024-03-23T03:46:17;0.90;99.90
16929;DHT22;8581;47.334;11.190;2024-03-23T03:48:49;0.80;99.90
16929;DHT22;8581;47.334;11.190;2024-03-23T03:51:21;0.80;99.90
16929;DHT22;8581;47.334;11.190;2024-03-23T03:53:53;0.80;99.90
16929;DHT22;8581;47.334;11.190;2024-03-23T03:56:25;0.80;99.90
16929;DHT22;8581;47.334;11.190;2024-03-23T03:58:58;0.80;99.90
16929;DHT22;8581;47.334;11.190;2024-03-23T04:01:30;0.70;99.90
16929;DHT22;8581;47.334;11.190;2024-03-23T04:04:02;0.70;99.90
16929;DHT22;8581;47.334;11.190;2024-03-23T04:06:34;0.80;99.90
16929;DHT22;8581;47.334;11.190;2024-03-23T04:09:06;0.90;99.90
16929;DHT22;8581;47.334;11.190;2024-03-23T04:11:38;0.90;99.90
16929;DHT22;8581;47.334;11.190;2024-03-23T04:14:10;1.00;99.90
16929;DHT22;8581;47.334;11.190;2024-03-23T04:16:43;1.00;99.90
16929;DHT22;8581;47.334;11.190;2024-03-23T04:19:15;0.90;99.90
16929;DHT22;8581;47.334;11.190;2024-03-23T04:21:47;0.70;99.90
16929;DHT22;8581;47.334;11.190;2024-03-23T04:24:20;0.60;99.90
16929;DHT22;8581;47.334;11.190;2024-03-23T04:26:52;0.50;99.90
16929;DHT22;8581;47.334;11.190;2024-03-23T04:29:25;0.60;99.90
16929;DHT22;8581;47.334;11.190;2024-03-23T04:31:57;0.70;99.90
16929;DHT22;8581;47.334;11.190;2024-03-23T04:34:29;0.70;99.90
16929;DHT22;8581;47.334;11.190;2024-03-23T04:37:01;0.60;99.90
16929;DHT22;8581;47.334;11.190;2024-03-23T04:39:33;0.70;99.90
16929;DHT22;8581;47.334;11.190;2024-03-23T04:42:06;0.80;99.90
16929;DHT22;8581;47.334;11.190;2024-03-23T04:44:38;1.00;99.90
16929;DHT22;8581;47.334;11.190;2024-03-23T04:47:10;1.10;99.90
16929;DHT22;8581;47.334;11.190;2024-03-23T04:49:42;1.00;99.90
16929;DHT22;8581;47.334;11.190;2024-03-23T04:52:14;1.00;99.90
16929;DHT22;8581;47.334;11.190;2024-03-23T04:54:46;1.00;99.90
16929;DHT22;8581;47.334;11.190;2024-03-23T04:57:18;0.90;99.90
16929;DHT22;8581;47.334;11.190;2024-03-23T04:59:50;0.80;99.90
16929;DHT22;8581;47.334;11.190;2024-03-23T05:02:22;0.70;99.90
16929;DHT22;8581;47.334;11.190;2024-03-23T05:04:54;0.70;99.90
16929;DHT22;8581;47.334;11.190;2024-03-23T05:07:26;0.80;99.90
16929;DHT22;8581;47.334;11.190;2024-03-23T05:09:58;0.70;99.90
16929;DHT22;8581;47.334;11.190;2024-03-23T05:12:30;0.60;99.90
16929;DHT22;8581;47.334;11.190;2024-03-23T05:15:04;0.60;99.90
16929;DHT22;8581;47.334;11.190;2024-03-23T05:17:35;0.60;99.90
16929;DHT22;8581;47.334;11.190;2024-03-23T05:20:07;0.60;99.90
16929;DHT22;8581;47.334;11.190;2024-03-23T05:22:41;0.50;99.90
16929;DHT22;8581;47.334;11.190;2024-03-23T05:25:12;0.50;99.90
16929;DHT22;8581;47.334;11.190;2024-03-23T05:27:44;0.40;99.90
16929;DHT22;8581;47.334;11.190;2024-03-23T05:30:16;0.40;99.90
16929;DHT22;8581;47.334;11.190;2024-03-23T05:32:48;0.40;99.90
16929;DHT22;8581;47.334;11.190;2024-03-23T05:35:20;0.70;99.90
16929;DHT22;8581;47.334;11.190;2024-03-23T05:37:52;0.60;99.90
16929;DHT22;8581;47.334;11.190;2024-03-23T05:40:25;0.50;99.90
16929;DHT22;8581;47.334;11.190;2024-03-23T05:42:57;0.60;99.90
16929;DHT22;8581;47.334;11.190;2024-03-23T05:45:29;0.70;99.90
16929;DHT22;8581;47.334;11.190;2024-03-23T05:48:01;0.70;99.90
16929;DHT22;8581;47.334;11.190;2024-03-23T05:50:33;0.70;99.90
16929;DHT22;8581;47.334;11.190;2024-03-23T05:53:05;0.60;99.90
16929;DHT22;8581;47.334;11.190;2024-03-23T05:55:37;0.60;99.90
16929;DHT22;8581;47.334;11.190;2024-03-23T05:58:09;0.90;99.90
16929;DHT22;8581;47.334;11.190;2024-03-23T06:00:42;1.20;99.90
16929;DHT22;8581;47.334;11.190;2024-03-23T06:03:14;1.40;99.90
16929;DHT22;8581;47.334;11.190;2024-03-23T06:05:46;1.40;99.90
16929;DHT22;8581;47.334;11.190;2024-03-23T06:08:19;1.40;99.90
16929;DHT22;8581;47.334;11.190;2024-03-23T06:10:51;1.40;99.90
16929;DHT22;8581;47.334;11.190;2024-03-23T06:13:23;1.50;99.90
16929;DHT22;8581;47.334;11.190;2024-03-23T06:15:55;1.50;99.90
16929;DHT22;8581;47.334;11.190;2024-03-23T06:18:27;1.40;99.90
16929;DHT22;8581;47.334;11.190;2024-03-23T06:21:00;1.40;99.90
16929;DHT22;8581;47.334;11.190;2024-03-23T06:23:32;1.40;99.90
16929;DHT22;8581;47.334;11.190;2024-03-23T06:26:04;1.40;99.90
16929;DHT22;8581;47.334;11.190;2024-03-23T06:28:37;1.40;99.90
16929;DHT22;8581;47.334;11.190;2024-03-23T06:31:09;1.50;99.90
16929;DHT22;8581;47.334;11.190;2024-03-23T06:33:41;1.60;99.90
16929;DHT22;8581;47.334;11.190;2024-03-23T06:36:14;1.60;99.90
16929;DHT22;8581;47.334;11.190;2024-03-23T06:38:46;1.50;99.90
16929;DHT22;8581;47.334;11.190;2024-03-23T06:41:19;1.60;99.90
16929;DHT22;8581;47.334;11.190;2024-03-23T06:43:50;1.70;99.90
16929;DHT22;8581;47.334;11.190;2024-03-23T06:46:23;1.70;99.90
16929;DHT22;8581;47.334;11.190;2024-03-23T06:48:55;1.80;99.90
16929;DHT22;8581;47.334;11.190;2024-03-23T06:51:28;1.80;99.90
16929;DHT22;8581;47.334;11.190;2024-03-23T06:54:00;1.80;99.90
16929;DHT22;8581;47.334;11.190;2024-03-23T06:56:33;2.00;99.90
16929;DHT22;8581;47.334;11.190;2024-03-23T06:59:05;2.00;99.90
16929;DHT22;8581;47.334;11.190;2024-03-23T07:01:37;2.10;99.90
16929;DHT22;8581;47.334;11.190;2024-03-23T07:04:10;2.20;99.90
16929;DHT22;8581;47.334;11.190;2024-03-23T07:06:43;2.50;99.90
16929;DHT22;8581;47.334;11.190;2024-03-23T07:09:15;2.70;99.90
16929;DHT22;8581;47.334;11.190;2024-03-23T07:11:46;2.90;99.90
16929;DHT22;8581;47.334;11.190;2024-03-23T07:14:19;3.20;99.90
16929;DHT22;8581;47.334;11.190;2024-03-23T07:16:51;3.40;99.90
16929;DHT22;8581;47.334;11.190;2024-03-23T07:19:23;3.70;99.90
16929;DHT22;8581;47.334;11.190;2024-03-23T07:21:55;4.10;99.90
16929;DHT22;8581;47.334;11.190;2024-03-23T07:24:27;4.60;99.90
16929;DHT22;8581;47.334;11.190;2024-03-23T07:26:59;4.90;99.90
16929;DHT22;8581;47.334;11.190;2024-03-23T07:29:32;5.30;99.90
16929;DHT22;8581;47.334;11.190;2024-03-23T07:32:04;5.70;99.90
16929;DHT22;8581;47.334;11.190;2024-03-23T07:34:36;6.00;99.90
16929;DHT22;8581;47.334;11.190;2024-03-23T07:37:09;6.60;99.90
16929;DHT22;8581;47.334;11.190;2024-03-23T07:39:41;7.00;99.90
16929;DHT22;8581;47.334;11.190;2024-03-23T07:42:13;7.10;99.90
16929;DHT22;8581;47.334;11.190;2024-03-23T07:44:45;7.30;99.90
16929;DHT22;8581;47.334;11.190;2024-03-23T07:47:17;7.50;99.90
16929;DHT22;8581;47.334;11.190;2024-03-23T07:49:49;7.80;99.90
16929;DHT22;8581;47.334;11.190;2024-03-23T07:52:21;8.00;99.90
16929;DHT22;8581;47.334;11.190;2024-03-23T07:54:53;8.40;99.90
16929;DHT22;8581;47.334;11.190;2024-03-23T07:57:25;8.60;99.90
16929;DHT22;8581;47.334;11.190;2024-03-23T07:59:57;8.90;99.90
16929;DHT22;8581;47.334;11.190;2024-03-23T08:02:29;9.10;99.90
16929;DHT22;8581;47.334;11.190;2024-03-23T08:05:01;9.30;99.90
16929;DHT22;8581;47.334;11.190;2024-03-23T08:07:33;9.50;99.90
16929;DHT22;8581;47.334;11.190;2024-03-23T08:10:06;9.60;99.90
16929;DHT22;8581;47.334;11.190;2024-03-23T08:12:38;9.70;99.90
16929;DHT22;8581;47.334;11.190;2024-03-23T08:15:10;10.00;99.90
16929;DHT22;8581;47.334;11.190;2024-03-23T08:17:43;10.20;99.90
16929;DHT22;8581;47.334;11.190;2024-03-23T08:20:15;10.30;99.90
16929;DHT22;8581;47.334;11.190;2024-03-23T08:22:46;10.60;99.90
16929;DHT22;8581;47.334;11.190;2024-03-23T08:25:19;10.90;99.90
16929;DHT22;8581;47.334;11.190;2024-03-23T08:27:51;11.10;99.90
16929;DHT22;8581;47.334;11.190;2024-03-23T08:30:23;11.50;99.90
16929;DHT22;8581;47.334;11.190;2024-03-23T08:32:55;11.80;99.90
16929;DHT22;8581;47.334;11.190;2024-03-23T08:35:27;12.00;99.90
16929;DHT22;8581;47.334;11.190;2024-03-23T08:37:59;12.40;99.90
16929;DHT22;8581;47.334;11.190;2024-03-23T08:40:31;12.90;99.90
16929;DHT22;8581;47.334;11.190;2024-03-23T08:43:04;12.90;99.80
16929;DHT22;8581;47.334;11.190;2024-03-23T08:45:36;13.10;99.90
16929;DHT22;8581;47.334;11.190;2024-03-23T08:48:08;13.50;99.90
16929;DHT22;8581;47.334;11.190;2024-03-23T08:50:40;14.00;98.90
16929;DHT22;8581;47.334;11.190;2024-03-23T08:53:12;14.00;98.40
16929;DHT22;8581;47.334;11.190;2024-03-23T08:55:52;13.70;98.00
16929;DHT22;8581;47.334;11.190;2024-03-23T08:58:17;13.90;99.50
16929;DHT22;8581;47.334;11.190;2024-03-23T09:00:50;13.90;98.00
16929;DHT22;8581;47.334;11.190;2024-03-23T09:03:24;13.90;99.20
16929;DHT22;8581;47.334;11.190;2024-03-23T09:05:56;14.00;97.60
16929;DHT22;8581;47.334;11.190;2024-03-23T09:08:28;14.20;97.60
16929;DHT22;8581;47.334;11.190;2024-03-23T09:11:03;14.40;95.80
16929;DHT22;8581;47.334;11.190;2024-03-23T09:13:33;14.60;96.00
16929;DHT22;8581;47.334;11.190;2024-03-23T09:16:06;15.20;95.40
16929;DHT22;8581;47.334;11.190;2024-03-23T09:18:38;15.80;96.80
16929;DHT22;8581;47.334;11.190;2024-03-23T09:21:11;16.60;95.90
16929;DHT22;8581;47.334;11.190;2024-03-23T09:23:44;16.80;95.10
16929;DHT22;8581;47.334;11.190;2024-03-23T09:26:16;16.70;94.90
16929;DHT22;8581;47.334;11.190;2024-03-23T09:28:49;17.10;92.90
16929;DHT22;8581;47.334;11.190;2024-03-23T09:31:22;17.00;93.70
16929;DHT22;8581;47.334;11.190;2024-03-23T09:33:55;16.60;94.00
16929;DHT22;8581;47.334;11.190;2024-03-23T09:36:27;16.40;94.10
16929;DHT22;8581;47.334;11.190;2024-03-23T09:38:59;16.10;94.40
16929;DHT22;8581;47.334;11.190;2024-03-23T09:41:31;16.20;93.60
16929;DHT22;8581;47.334;11.190;2024-03-23T09:44:04;16.20;93.70
16929;DHT22;8581;47.334;11.190;2024-03-23T09:46:36;15.40;96.20
16929;DHT22;8581;47.334;11.190;2024-03-23T09:49:09;15.60;95.40
16929;DHT22;8581;47.334;11.190;2024-03-23T09:51:41;14.90;96.90
16929;DHT22;8581;47.334;11.190;2024-03-23T09:54:13;15.50;97.40
16929;DHT22;8581;47.334;11.190;2024-03-23T09:56:45;15.80;97.70
16929;DHT22;8581;47.334;11.190;2024-03-23T09:59:17;15.50;96.90
16929;DHT22;8581;47.334;11.190;2024-03-23T10:01:49;15.90;97.70
16929;DHT22;8581;47.334;11.190;2024-03-23T10:07:14;15.20;97.00
16929;DHT22;8581;47.334;11.190;2024-03-23T10:09:46;14.80;99.00
16929;DHT22;8581;47.334;11.190;2024-03-23T10:12:19;14.60;99.50
16929;DHT22;8581;47.334;11.190;2024-03-23T10:14:51;14.60;99.00
16929;DHT22;8581;47.334;11.190;2024-03-23T10:17:23;13.70;99.90
16929;DHT22;8581;47.334;11.190;2024-03-23T10:19:56;13.40;99.90
16929;DHT22;8581;47.334;11.190;2024-03-23T10:22:28;13.10;99.90
16929;DHT22;8581;47.334;11.190;2024-03-23T10:25:06;12.60;99.90
16929;DHT22;8581;47.334;11.190;2024-03-23T10:27:33;11.80;99.90
16929;DHT22;8581;47.334;11.190;2024-03-23T10:30:11;11.60;99.90
16929;DHT22;8581;47.334;11.190;2024-03-23T10:32:43;11.40;99.90
16929;DHT22;8581;47.334;11.190;2024-03-23T10:35:18;11.00;99.90
16929;DHT22;8581;47.334;11.190;2024-03-23T10:37:51;10.40;99.90
16929;DHT22;8581;47.334;11.190;2024-03-23T10:40:23;10.20;99.90
16929;DHT22;8581;47.334;11.190;2024-03-23T10:42:55;9.90;99.90
16929;DHT22;8581;47.334;11.190;2024-03-23T10:45:27;10.10;99.90
16929;DHT22;8581;47.334;11.190;2024-03-23T10:47:59;9.90;99.90
16929;DHT22;8581;47.334;11.190;2024-03-23T10:50:32;9.70;99.90
16929;DHT22;8581;47.334;11.190;2024-03-23T10:53:04;9.40;99.90
16929;DHT22;8581;47.334;11.190;2024-03-23T10:55:36;8.90;99.90
16929;DHT22;8581;47.334;11.190;2024-03-23T10:58:08;8.50;99.90
16929;DHT22;8581;47.334;11.190;2024-03-23T11:00:41;8.40;99.90
16929;DHT22;8581;47.334;11.190;2024-03-23T11:05:56;7.90;99.90
16929;DHT22;8581;47.334;11.190;2024-03-23T11:08:33;7.60;99.90
16929;DHT22;8581;47.334;11.190;2024-03-23T11:11:12;7.10;99.90
16929;DHT22;8581;47.334;11.190;2024-03-23T11:13:44;6.90;99.90
16929;DHT22;8581;47.334;11.190;2024-03-23T11:16:22;6.70;99.90
16929;DHT22;8581;47.334;11.190;2024-03-23T11:18:54;6.60;99.90
16929;DHT22;8581;47.334;11.190;2024-03-23T11:24:13;6.40;99.90
16929;DHT22;8581;47.334;11.190;2024-03-23T11:26:45;6.40;99.90
16929;DHT22;8581;47.334;11.190;2024-03-23T11:29:16;6.20;99.90
16929;DHT22;8581;47.334;11.190;2024-03-23T11:31:49;6.00;99.90
16929;DHT22;8581;47.334;11.190;2024-03-23T11:34:20;5.80;99.90
16929;DHT22;8581;47.334;11.190;2024-03-23T11:37:02;5.10;99.90
16929;DHT22;8581;47.334;11.190;2024-03-23T11:39:25;4.90;99.90
16929;DHT22;8581;47.334;11.190;2024-03-23T11:41:58;4.50;99.90
16929;DHT22;8581;47.334;11.190;2024-03-23T11:44:30;4.50;99.90
16929;DHT22;8581;47.334;11.190;2024-03-23T11:47:08;4.50;99.90
16929;DHT22;8581;47.334;11.190;2024-03-23T11:49:41;4.10;99.90
16929;DHT22;8581;47.334;11.190;2024-03-23T11:52:14;4.20;99.90
16929;DHT22;8581;47.334;11.190;2024-03-23T11:54:45;3.80;99.90
16929;DHT22;8581;47.334;11.190;2024-03-23T11:57:17;3.60;99.90
16929;DHT22;8581;47.334;11.190;2024-03-23T11:59:49;3.30;99.90
16929;DHT22;8581;47.334;11.190;2024-03-23T12:02:21;3.00;99.90
16929;DHT22;8581;47.334;11.190;2024-03-23T12:04:53;3.00;99.90
16929;DHT22;8581;47.334;11.190;2024-03-23T12:07:25;3.00;99.90
16929;DHT22;8581;47.334;11.190;2024-03-23T12:10:04;3.10;99.90
16929;DHT22;8581;47.334;11.190;2024-03-23T12:12:39;3.30;99.90
16929;DHT22;8581;47.334;11.190;2024-03-23T12:15:11;3.00;99.90
16929;DHT22;8581;47.334;11.190;2024-03-23T12:17:43;2.60;99.90
16929;DHT22;8581;47.334;11.190;2024-03-23T12:20:15;2.50;99.90
16929;DHT22;8581;47.334;11.190;2024-03-23T12:22:47;2.60;99.90
16929;DHT22;8581;47.334;11.190;2024-03-23T12:25:19;2.70;99.90
16929;DHT22;8581;47.334;11.190;2024-03-23T12:27:52;2.70;99.90
16929;DHT22;8581;47.334;11.190;2024-03-23T12:30:24;2.70;99.90
16929;DHT22;8581;47.334;11.190;2024-03-23T12:32:56;2.70;99.90
16929;DHT22;8581;47.334;11.190;2024-03-23T12:35:28;2.40;99.90
16929;DHT22;8581;47.334;11.190;2024-03-23T12:38:00;2.60;99.90
16929;DHT22;8581;47.334;11.190;2024-03-23T12:40:32;2.60;99.90
16929;DHT22;8581;47.334;11.190;2024-03-23T12:43:04;2.80;99.90
16929;DHT22;8581;47.334;11.190;2024-03-23T12:45:36;2.90;99.90
16929;DHT22;8581;47.334;11.190;2024-03-23T12:48:08;3.00;99.90
16929;DHT22;8581;47.334;11.190;2024-03-23T12:50:40;3.00;99.90
16929;DHT22;8581;47.334;11.190;2024-03-23T12:53:13;2.80;99.90
16929;DHT22;8581;47.334;11.190;2024-03-23T12:55:45;2.60;99.90
16929;DHT22;8581;47.334;11.190;2024-03-23T12:58:17;2.60;99.90
16929;DHT22;8581;47.334;11.190;2024-03-23T13:00:49;2.30;99.90
16929;DHT22;8581;47.334;11.190;2024-03-23T13:03:21;2.40;99.90
16929;DHT22;8581;47.334;11.190;2024-03-23T13:05:58;2.40;99.90
16929;DHT22;8581;47.334;11.190;2024-03-23T13:08:30;2.40;99.90
16929;DHT22;8581;47.334;11.190;2024-03-23T13:11:02;2.20;99.90
16929;DHT22;8581;47.334;11.190;2024-03-23T13:13:34;2.30;99.90
16929;DHT22;8581;47.334;11.190;2024-03-23T13:16:06;2.30;99.90
16929;DHT22;8581;47.334;11.190;2024-03-23T13:18:38;2.40;99.90
16929;DHT22;8581;47.334;11.190;2024-03-23T13:21:10;2.50;99.90
16929;DHT22;8581;47.334;11.190;2024-03-23T13:23:42;2.30;99.90
16929;DHT22;8581;47.334;11.190;2024-03-23T13:26:14;2.50;99.90
16929;DHT22;8581;47.334;11.190;2024-03-23T13:28:45;2.70;99.90
16929;DHT22;8581;47.334;11.190;2024-03-23T13:31:17;2.80;99.90
16929;DHT22;8581;47.334;11.190;2024-03-23T13:33:49;3.00;99.90
16929;DHT22;8581;47.334;11.190;2024-03-23T13:36:20;3.00;99.90
16929;DHT22;8581;47.334;11.190;2024-03-23T13:38:52;2.80;99.90
16929;DHT22;8581;47.334;11.190;2024-03-23T13:41:24;2.90;99.90
16929;DHT22;8581;47.334;11.190;2024-03-23T13:43:55;3.10;99.90
16929;DHT22;8581;47.334;11.190;2024-03-23T13:46:27;3.20;99.90
16929;DHT22;8581;47.334;11.190;2024-03-23T13:48:59;3.30;99.90
16929;DHT22;8581;47.334;11.190;2024-03-23T13:51:30;3.20;99.90
16929;DHT22;8581;47.334;11.190;2024-03-23T13:54:02;3.50;99.90
16929;DHT22;8581;47.334;11.190;2024-03-23T13:56:34;3.20;99.90
16929;DHT22;8581;47.334;11.190;2024-03-23T13:59:05;3.20;99.90
16929;DHT22;8581;47.334;11.190;2024-03-23T14:01:37;3.20;99.90
16929;DHT22;8581;47.334;11.190;2024-03-23T14:04:09;3.20;99.90
16929;DHT22;8581;47.334;11.190;2024-03-23T14:06:41;3.20;99.90
16929;DHT22;8581;47.334;11.190;2024-03-23T14:09:13;3.20;99.90
16929;DHT22;8581;47.334;11.190;2024-03-23T14:11:44;3.20;99.90
16929;DHT22;8581;47.334;11.190;2024-03-23T14:14:16;3.60;99.90
16929;DHT22;8581;47.334;11.190;2024-03-23T14:16:48;3.70;99.90
16929;DHT22;8581;47.334;11.190;2024-03-23T14:19:20;3.50;99.90
16929;DHT22;8581;47.334;11.190;2024-03-23T14:21:52;3.50;99.90
16929;DHT22;8581;47.334;11.190;2024-03-23T14:24:24;3.50;99.90
16929;DHT22;8581;47.334;11.190;2024-03-23T14:26:55;3.80;99.90
16929;DHT22;8581;47.334;11.190;2024-03-23T14:29:27;4.20;99.90
16929;DHT22;8581;47.334;11.190;2024-03-23T14:31:59;4.20;99.90
16929;DHT22;8581;47.334;11.190;2024-03-23T14:34:30;4.50;99.90
16929;DHT22;8581;47.334;11.190;2024-03-23T14:37:02;4.40;99.90
16929;DHT22;8581;47.334;11.190;2024-03-23T14:39:34;4.30;99.90
16929;DHT22;8581;47.334;11.190;2024-03-23T14:42:06;4.60;99.90
16929;DHT22;8581;47.334;11.190;2024-03-23T14:44:38;5.00;99.90
16929;DHT22;8581;47.334;11.190;2024-03-23T14:47:09;5.00;99.90
16929;DHT22;8581;47.334;11.190;2024-03-23T14:49:41;4.70;99.90
16929;DHT22;8581;47.334;11.190;2024-03-23T14:52:13;5.00;99.90
16929;DHT22;8581;47.334;11.190;2024-03-23T14:54:45;4.50;99.90
16929;DHT22;8581;47.334;11.190;2024-03-23T14:57:17;4.20;99.90
16929;DHT22;8581;47.334;11.190;2024-03-23T14:59:49;4.10;99.90
16929;DHT22;8581;47.334;11.190;2024-03-23T15:02:20;3.90;99.90
16929;DHT22;8581;47.334;11.190;2024-03-23T15:04:52;4.00;99.90
16929;DHT22;8581;47.334;11.190;2024-03-23T15:07:24;3.90;99.90
16929;DHT22;8581;47.334;11.190;2024-03-23T15:09:55;4.00;99.90
16929;DHT22;8581;47.334;11.190;2024-03-23T15:12:27;3.90;99.90
16929;DHT22;8581;47.334;11.190;2024-03-23T15:14:59;3.80;99.90
16929;DHT22;8581;47.334;11.190;2024-03-23T15:17:31;3.90;99.90
16929;DHT22;8581;47.334;11.190;2024-03-23T15:20:03;4.10;99.90
16929;DHT22;8581;47.334;11.190;2024-03-23T15:22:35;4.40;99.90
16929;DHT22;8581;47.334;11.190;2024-03-23T15:25:08;4.50;99.90
16929;DHT22;8581;47.334;11.190;2024-03-23T15:27:39;4.50;99.90
16929;DHT22;8581;47.334;11.190;2024-03-23T15:30:12;4.70;99.90
16929;DHT22;8581;47.334;11.190;2024-03-23T15:32:44;5.00;99.90
16929;DHT22;8581;47.334;11.190;2024-03-23T15:35:16;4.90;99.90
16929;DHT22;8581;47.334;11.190;2024-03-23T15:37:48;4.90;99.90
16929;DHT22;8581;47.334;11.190;2024-03-23T15:40:20;5.40;99.90
16929;DHT22;8581;47.334;11.190;2024-03-23T15:42:52;5.40;99.90
16929;DHT22;8581;47.334;11.190;2024-03-23T15:45:25;5.80;99.90
16929;DHT22;8581;47.334;11.190;2024-03-23T15:47:57;5.90;99.90
16929;DHT22;8581;47.334;11.190;2024-03-23T15:50:29;5.80;99.90
16929;DHT22;8581;47.334;11.190;2024-03-23T15:53:01;6.00;99.90
16929;DHT22;8581;47.334;11.190;2024-03-23T15:55:33;6.40;99.90
16929;DHT22;8581;47.334;11.190;2024-03-23T15:58:06;7.50;99.90
16929;DHT22;8581;47.334;11.190;2024-03-23T16:00:38;9.80;99.90
16929;DHT22;8581;47.334;11.190;2024-03-23T16:03:10;12.10;99.90
16929;DHT22;8581;47.334;11.190;2024-03-23T16:05:42;13.40;99.90
16929;DHT22;8581;47.334;11.190;2024-03-23T16:08:14;12.60;99.90
16929;DHT22;8581;47.334;11.190;2024-03-23T16:10:46;13.20;99.90
16929;DHT22;8581;47.334;11.190;2024-03-23T16:13:18;11.20;99.90
16929;DHT22;8581;47.334;11.190;2024-03-23T16:15:55;11.30;99.90
16929;DHT22;8581;47.334;11.190;2024-03-23T16:18:26;11.90;99.90
16929;DHT22;8581;47.334;11.190;2024-03-23T16:21:00;13.40;99.90
16929;DHT22;8581;47.334;11.190;2024-03-23T16:23:32;13.30;99.90
16929;DHT22;8581;47.334;11.190;2024-03-23T16:26:04;13.40;99.90
16929;DHT22;8581;47.334;11.190;2024-03-23T16:28:37;12.30;99.90
16929;DHT22;8581;47.334;11.190;2024-03-23T16:31:09;11.30;99.90
16929;DHT22;8581;47.334;11.190;2024-03-23T16:33:41;11.40;99.90
16929;DHT22;8581;47.334;11.190;2024-03-23T16:36:13;10.90;99.90
16929;DHT22;8581;47.334;11.190;2024-03-23T16:38:45;8.80;99.90
16929;DHT22;8581;47.334;11.190;2024-03-23T16:41:17;8.40;99.90
16929;DHT22;8581;47.334;11.190;2024-03-23T16:43:49;7.80;99.90
16929;DHT22;8581;47.334;11.190;2024-03-23T16:46:21;7.20;99.90
16929;DHT22;8581;47.334;11.190;2024-03-23T16:48:53;5.80;99.90
16929;DHT22;8581;47.334;11.190;2024-03-23T16:51:25;5.10;99.90
16929;DHT22;8581;47.334;11.190;2024-03-23T16:53:57;4.60;99.90
16929;DHT22;8581;47.334;11.190;2024-03-23T16:56:29;4.00;99.90
16929;DHT22;8581;47.334;11.190;2024-03-23T16:59:01;2.90;99.90
16929;DHT22;8581;47.334;11.190;2024-03-23T17:01:33;2.70;99.90
16929;DHT22;8581;47.334;11.190;2024-03-23T17:04:05;2.80;99.90
16929;DHT22;8581;47.334;11.190;2024-03-23T17:06:37;2.80;99.90
16929;DHT22;8581;47.334;11.190;2024-03-23T17:09:10;2.60;99.90
16929;DHT22;8581;47.334;11.190;2024-03-23T17:11:42;2.60;99.90
16929;DHT22;8581;47.334;11.190;2024-03-23T17:14:15;2.20;99.90
16929;DHT22;8581;47.334;11.190;2024-03-23T17:16:47;2.40;99.90